Time;durP1;ratioP1;P1;durP2;ratioP2;P2;SDS_P1;SDS_P2;PMS_P1;PMS_P2;Temp;Humidity;BMP_temperature;BMP_pressure;BME280_temperature;BME280_humidity;BME280_pressure;Samples;Min_cycle;Max_cycle;Signal;HPM_P1;HPM_P2
2021/07/08 00:03:21;;;;;;;;;;;;;;;;;;10238835;28;19920;-64
2021/07/08 00:08:18;;;;;;;;;;;;;;;;;;10240915;28;19921;-63
2021/07/08 00:13:15;;;;;;;;;;;;;;;;;;10247972;28;19913;-66
2021/07/08 00:18:12;;;;;;;;;;;;;;;;;;10241678;28;19918;-66
2021/07/08 00:23:10;;;;;;;;;;;;;;;;;;10236212;28;20015;-65
2021/07/08 00:28:10;;;;;;;;;;;;;;;;;;10246793;28;19917;-64
2021/07/08 00:33:07;;;;;;;;;;;;;;;;;;10242285;28;20000;-66
2021/07/08 00:38:07;;;;;;;;;;;;;;;;;;10225833;28;20363;-66
2021/07/08 00:43:04;;;;;;;;;;;;;;;;;;10253141;28;19953;-65
2021/07/08 00:48:01;;;;;;;;;;;;;;;;;;10242733;28;19952;-65
2021/07/08 00:52:59;;;;;;;;;;;;;;;;;;10250998;28;19967;-65
2021/07/08 00:57:56;;;;;;;;;;;;;;;;;;10243309;28;20362;-65
2021/07/08 01:02:54;;;;;;;;;;;;;;;;;;10240533;28;20121;-66
2021/07/08 01:07:52;;;;;;;;;;;;;;;;;;10241540;28;19914;-65
2021/07/08 01:12:49;;;;;;;;;;;;;;;;;;10248871;28;19918;-65
2021/07/08 01:17:47;;;;;;;;;;;;;;;;;;10248425;28;20001;-66
2021/07/08 01:22:44;;;;;;;;;;;;;;;;;;10245816;28;20017;-66
2021/07/08 01:27:41;;;;;;;;;;;;;;;;;;10242132;28;19937;-66
2021/07/08 01:32:38;;;;;;;;;;;;;;;;;;10251255;28;20016;-65
2021/07/08 01:37:36;;;;;;;;;;;;;;;;;;10260522;28;20302;-66
2021/07/08 01:42:33;;;;;;;;;;;;;;;;;;10247592;28;19920;-66
2021/07/08 01:47:30;;;;;;;;;;;;;;;;;;10230730;28;19997;-66
2021/07/08 01:52:27;;;;;;;;;;;;;;;;;;10247747;28;19986;-65
2021/07/08 01:57:25;;;;;;;;;;;;;;;;;;10243028;28;20299;-66
2021/07/08 02:02:22;;;;;;;;;;;;;;;;;;10241407;28;19920;-65
2021/07/08 02:07:19;;;;;;;;;;;;;;;;;;10240875;28;20395;-65
2021/07/08 02:12:17;;;;;;;;;;;;;;;;;;10254233;28;19939;-65
2021/07/08 02:17:14;;;;;;;;;;;;;;;;;;10241407;28;20379;-64
2021/07/08 02:22:11;;;;;;;;;;;;;;;;;;10240980;28;19917;-65
2021/07/08 02:27:08;;;;;;;;;;;;;;;;;;10257238;28;19917;-66
2021/07/08 02:32:07;;;;;;;;;;;;;;;;;;10239021;28;20444;-65
2021/07/08 02:37:04;;;;;;;;;;;;;;;;;;10232471;28;19917;-64
2021/07/08 02:42:01;;;;;;;;;;;;;;;;;;10252718;28;20290;-67
2021/07/08 02:46:59;;;;;;;;;;;;;;;;;;10235466;28;19927;-66
2021/07/08 02:51:57;;;;;;;;;;;;;;;;;;10231903;28;19924;-64
2021/07/08 02:56:54;;;;;;;;;;;;;;;;;;10250783;28;19951;-63
2021/07/08 03:01:51;;;;;;;;;;;;;;;;;;10231699;28;19925;-63
2021/07/08 03:06:48;;;;;;;;;;;;;;;;;;10243876;28;19917;-63
2021/07/08 03:11:46;;;;;;;;;;;;;;;;;;10263021;28;19924;-64
2021/07/08 03:16:43;;;;;;;;;;;;;;;;;;10263967;28;20004;-63
2021/07/08 03:21:40;;;;;;;;;;;;;;;;;;10248134;28;20268;-63
2021/07/08 03:26:37;;;;;;;;;;;;;;;;;;10238283;28;20152;-62
2021/07/08 03:31:35;;;;;;;;;;;;;;;;;;10262941;28;19925;-62
2021/07/08 03:36:32;;;;;;;;;;;;;;;;;;10254316;28;19921;-63
2021/07/08 03:41:29;;;;;;;;;;;;;;;;;;10227106;28;20012;-62
2021/07/08 03:46:26;;;;;;;;;;;;;;;;;;10210048;28;19913;-63
2021/07/08 03:51:24;;;;;;;;;;;;;;;;;;10253561;28;20329;-63
2021/07/08 03:56:21;;;;;;;;;;;;;;;;;;10255437;28;19917;-64
2021/07/08 04:01:18;;;;;;;;;;;;;;;;;;10240000;28;19937;-62
2021/07/08 04:06:16;;;;;;;;;;;;;;;;;;10242340;28;19919;-63
2021/07/08 04:11:13;;;;;;;;;;;;;;;;;;10259161;28;20052;-61
2021/07/08 04:16:10;;;;;;;;;;;;;;;;;;10261886;28;19959;-63
2021/07/08 04:21:07;;;;;;;;;;;;;;;;;;10257586;28;20012;-63
2021/07/08 04:26:05;;;;;;;;;;;;;;;;;;10223661;28;19959;-64
2021/07/08 04:31:02;;;;;;;;;;;;;;;;;;10249411;28;19914;-68
2021/07/08 04:35:59;;;;;;;;;;;;;;;;;;10259152;28;20379;-67
2021/07/08 04:40:57;;;;;;;;;;;;;;;;;;10251023;28;19949;-66
2021/07/08 04:45:54;;;;;;;;;;;;;;;;;;10251691;28;20372;-68
2021/07/08 04:50:51;;;;;;;;;;;;;;;;;;10244325;28;19921;-66
2021/07/08 04:55:48;;;;;;;;;;;;;;;;;;10247835;28;19921;-66
2021/07/08 05:00:46;;;;;;;;;;;;;;;;;;10248228;28;20096;-67
2021/07/08 05:05:43;;;;;;;;;;;;;;;;;;10243553;28;19913;-65
2021/07/08 05:10:40;;;;;;;;;;;;;;;;;;10244967;28;20454;-67
2021/07/08 05:15:38;;;;;;;;;;;;;;;;;;10254795;28;19925;-67
2021/07/08 05:20:37;;;;;;;;;;;;;;;;;;10244639;28;19914;-66
2021/07/08 05:25:34;;;;;;;;;;;;;;;;;;10245962;28;19917;-65
2021/07/08 05:30:32;;;;;;;;;;;;;;;;;;10254420;28;19928;-65
2021/07/08 05:35:29;;;;;;;;;;;;;;;;;;10245314;28;20005;-68
2021/07/08 05:40:26;;;;;;;;;;;;;;;;;;10245143;28;20270;-66
2021/07/08 05:45:23;;;;;;;;;;;;;;;;;;10234461;28;19944;-67
2021/07/08 05:50:21;;;;;;;;;;;;;;;;;;10230908;28;19913;-69
2021/07/08 05:55:18;;;;;;;;;;;;;;;;;;10244627;28;19995;-66
2021/07/08 06:00:16;;;;;;;;;;;;;;;;;;10245381;28;19913;-66
2021/07/08 06:05:13;;;;;;;;;;;;;;;;;;10246042;28;20378;-67
2021/07/08 06:10:10;;;;;;;;;;;;;;;;;;10242330;28;19932;-67
2021/07/08 06:15:08;;;;;;;;;;;;;;;;;;10249945;28;20330;-66
2021/07/08 06:20:05;;;;;;;;;;;;;;;;;;10224387;28;20334;-65
2021/07/08 06:25:03;;;;;;;;;;;;;;;;;;10246279;28;19913;-65
2021/07/08 06:30:01;;;;;;;;;;;;;;;;;;10245749;28;20433;-69
2021/07/08 06:35:00;;;;;;;;;;;;;;;;;;10240934;28;19920;-67
2021/07/08 06:39:57;;;;;;;;;;;;;;;;;;10235677;28;20622;-66
2021/07/08 06:44:54;;;;;;;;;;;;;;;;;;10238875;28;20365;-67
2021/07/08 06:49:51;;;;;;;;;;;;;;;;;;10216966;28;19905;-66
2021/07/08 06:54:49;;;;;;;;;;;;;;;;;;10224489;28;19917;-66
2021/07/08 06:59:47;;;;;;;;;;;;;;;;;;10226596;28;20020;-66
2021/07/08 07:04:44;;;;;;;;;;;;;;;;;;10221381;28;20008;-67
2021/07/08 07:09:42;;;;;;;;;;;;;;;;;;10240556;28;19971;-68
2021/07/08 07:14:39;;;;;;;;;;;;;;;;;;10227062;28;19917;-68
2021/07/08 07:19:37;;;;;;;;;;;;;;;;;;10226023;28;20372;-68
2021/07/08 07:24:34;;;;;;;;;;;;;;;;;;10227159;28;20347;-68
2021/07/08 07:29:31;;;;;;;;;;;;;;;;;;10228934;28;20295;-67
2021/07/08 07:34:29;;;;;;;;;;;;;;;;;;10247214;28;19999;-67
2021/07/08 07:39:26;;;;;;;;;;;;;;;;;;10252229;28;20302;-67
2021/07/08 07:44:23;;;;;;;;;;;;;;;;;;10246030;28;20366;-67
2021/07/08 07:49:20;;;;;;;;;;;;;;;;;;10232917;28;19925;-64
2021/07/08 07:54:18;;;;;;;;;;;;;;;;;;10255009;28;19925;-67
2021/07/08 07:59:15;;;;;;;;;;;;;;;;;;10251286;28;19914;-66
2021/07/08 08:04:12;;;;;;;;;;;;;;;;;;10257892;28;19925;-68
2021/07/08 08:09:10;;;;;;;;;;;;;;;;;;10248311;28;19997;-67
2021/07/08 08:14:07;;;;;;;;;;;;;;;;;;10232242;28;19921;-68
2021/07/08 08:19:04;;;;;;;;;;;;;;;;;;10252643;28;20352;-66
2021/07/08 08:24:02;;;;;;;;;;;;;;;;;;10257556;28;19922;-66
2021/07/08 08:28:59;;;;;;;;;;;;;;;;;;10245702;28;19996;-66
2021/07/08 08:33:56;;;;;;;;;;;;;;;;;;10249707;28;19920;-65
2021/07/08 08:38:53;;;;;;;;;;;;;;;;;;10244120;28;20276;-66
2021/07/08 08:43:51;;;;;;;;;;;;;;;;;;10232373;28;20258;-67
2021/07/08 08:48:48;;;;;;;;;;;;;;;;;;10246683;28;19918;-67
2021/07/08 08:53:45;;;;;;;;;;;;;;;;;;10228047;28;19947;-67
2021/07/08 08:58:42;;;;;;;;;;;;;;;;;;10234871;28;19918;-67
2021/07/08 09:03:40;;;;;;;;;;;;;;;;;;10253613;28;19921;-67
2021/07/08 09:08:37;;;;;;;;;;;;;;;;;;10248894;28;19959;-66
2021/07/08 09:13:34;;;;;;;;;;;;;;;;;;10252566;28;20446;-67
2021/07/08 09:18:34;;;;;;;;;;;;;;;;;;10235479;28;19957;-65
2021/07/08 09:23:31;;;;;;;;;;;;;;;;;;10235848;28;19924;-66
2021/07/08 09:28:28;;;;;;;;;;;;;;;;;;10243972;28;19929;-66
2021/07/08 09:33:25;;;;;;;;;;;;;;;;;;10242550;28;19914;-66
2021/07/08 09:38:23;;;;;;;;;;;;;;;;;;10238699;28;19917;-65
2021/07/08 09:43:20;;;;;;;;;;;;;;;;;;10255821;28;19921;-71
2021/07/08 09:48:20;;;;;;;;;;;;;;;;;;10230055;28;20000;-66
2021/07/08 09:53:20;;;;;;;;;;;;;;;;;;10231749;28;19913;-67
2021/07/08 09:58:18;;;;;;;;;;;;;;;;;;10230625;28;19917;-66
2021/07/08 10:03:15;;;;;;;;;;;;;;;;;;10240607;28;19913;-67
2021/07/08 10:08:13;;;;;;;;;;;;;;;;;;10212486;28;20496;-66
2021/07/08 10:13:10;;;;;;;;;;;;;;;;;;10238364;28;19913;-64
2021/07/08 10:18:07;;;;;;;;;;;;;;;;;;10234551;28;19972;-68
2021/07/08 10:23:05;;;;;;;;;;;;;;;;;;10219668;28;19917;-66
2021/07/08 10:28:02;;;;;;;;;;;;;;;;;;10232325;28;19917;-66
2021/07/08 10:32:59;;;;;;;;;;;;;;;;;;10251128;28;19921;-66
2021/07/08 10:37:56;;;;;;;;;;;;;;;;;;10227127;28;19925;-68
2021/07/08 10:42:54;;;;;;;;;;;;;;;;;;10233026;28;19914;-72
2021/07/08 10:47:51;;;;;;;;;;;;;;;;;;10236328;28;19913;-67
2021/07/08 10:52:49;;;;;;;;;;;;;;;;;;10207748;28;20541;-68
2021/07/08 10:57:47;;;;;;;;;;;;;;;;;;10227344;28;19924;-67
2021/07/08 11:02:46;;;;;;;;;;;;;;;;;;10214574;28;20041;-67
2021/07/08 11:07:43;;;;;;;;;;;;;;;;;;10241702;28;19936;-66
2021/07/08 11:12:40;;;;;;;;;;;;;;;;;;10219829;28;19914;-66
2021/07/08 11:17:38;;;;;;;;;;;;;;;;;;10220159;28;20022;-65
2021/07/08 11:22:36;;;;;;;;;;;;;;;;;;10235995;28;19928;-65
2021/07/08 11:27:33;;;;;;;;;;;;;;;;;;10223779;28;19926;-64
2021/07/08 11:32:32;;;;;;;;;;;;;;;;;;10227763;28;19914;-64
2021/07/08 11:37:44;;;;;;;;;;;;;;;;;;10244696;28;19921;-63
2021/07/08 11:42:41;;;;;;;;;;;;;;;;;;10232577;28;19940;-64
2021/07/08 11:47:39;;;;;;;;;;;;;;;;;;10225816;28;20292;-64
2021/07/08 11:52:36;;;;;;;;;;;;;;;;;;10235270;28;19917;-64
2021/07/08 11:57:33;;;;;;;;;;;;;;;;;;10245371;28;20433;-64
2021/07/08 12:02:30;;;;;;;;;;;;;;;;;;10233887;28;19918;-64
2021/07/08 12:07:28;;;;;;;;;;;;;;;;;;10251172;28;20004;-65
2021/07/08 12:12:25;;;;;;;;;;;;;;;;;;10221910;28;20275;-64
2021/07/08 12:17:22;;;;;;;;;;;;;;;;;;10245277;28;19924;-64
2021/07/08 12:22:19;;;;;;;;;;;;;;;;;;10252157;28;19980;-64
2021/07/08 12:27:17;;;;;;;;;;;;;;;;;;10253612;28;19917;-65
2021/07/08 12:32:14;;;;;;;;;;;;;;;;;;10233689;28;20000;-64
2021/07/08 12:37:16;;;;;;;;;;;;;;;;;;10241907;28;19961;-64
2021/07/08 12:42:14;;;;;;;;;;;;;;;;;;10238726;28;19921;-65
2021/07/08 12:47:11;;;;;;;;;;;;;;;;;;10232644;28;19921;-63
2021/07/08 12:52:08;;;;;;;;;;;;;;;;;;10252150;28;19925;-62
2021/07/08 12:57:06;;;;;;;;;;;;;;;;;;10240024;28;19917;-63
2021/07/08 13:02:03;;;;;;;;;;;;;;;;;;10248647;28;20036;-64
2021/07/08 13:07:00;;;;;;;;;;;;;;;;;;10237949;28;20008;-65
2021/07/08 13:11:58;;;;;;;;;;;;;;;;;;10255438;28;20298;-63
2021/07/08 13:16:55;;;;;;;;;;;;;;;;;;10236824;28;19967;-63
2021/07/08 13:21:52;;;;;;;;;;;;;;;;;;10238912;28;20390;-63
2021/07/08 13:26:49;;;;;;;;;;;;;;;;;;10238845;28;19921;-64
2021/07/08 13:31:47;;;;;;;;;;;;;;;;;;10231165;28;19913;-65
2021/07/08 13:36:45;;;;;;;;;;;;;;;;;;10245876;28;19918;-64
2021/07/08 13:41:48;;;;;;;;;;;;;;;;;;10219270;28;19913;-64
2021/07/08 13:46:45;;;;;;;;;;;;;;;;;;10224298;28;19955;-64
2021/07/08 13:51:42;;;;;;;;;;;;;;;;;;10235825;28;20338;-64
2021/07/08 13:56:40;;;;;;;;;;;;;;;;;;10241584;28;19917;-64
2021/07/08 14:01:37;;;;;;;;;;;;;;;;;;10236555;28;19913;-64
2021/07/08 14:06:34;;;;;;;;;;;;;;;;;;10246216;28;20193;-65
2021/07/08 14:11:32;;;;;;;;;;;;;;;;;;10222364;28;19917;-64
2021/07/08 14:16:29;;;;;;;;;;;;;;;;;;10239429;28;19923;-65
2021/07/08 14:21:27;;;;;;;;;;;;;;;;;;10257120;28;19982;-64
2021/07/08 14:26:25;;;;;;;;;;;;;;;;;;10251362;28;20410;-64
2021/07/08 14:31:22;;;;;;;;;;;;;;;;;;10248060;28;20409;-64
2021/07/08 14:36:19;;;;;;;;;;;;;;;;;;10253963;28;19921;-65
2021/07/08 14:41:16;;;;;;;;;;;;;;;;;;10240424;28;19913;-65
2021/07/08 14:46:14;;;;;;;;;;;;;;;;;;10255621;28;20370;-64
2021/07/08 14:51:13;;;;;;;;;;;;;;;;;;10258487;28;19924;-64
2021/07/08 14:56:10;;;;;;;;;;;;;;;;;;10253853;28;20394;-64
2021/07/08 15:01:07;;;;;;;;;;;;;;;;;;10251645;28;19921;-64
2021/07/08 15:06:04;;;;;;;;;;;;;;;;;;10254636;28;19917;-64
2021/07/08 15:11:01;;;;;;;;;;;;;;;;;;10256631;28;19909;-64
2021/07/08 15:15:59;;;;;;;;;;;;;;;;;;10256716;28;19921;-64
2021/07/08 15:20:56;;;;;;;;;;;;;;;;;;10246567;28;20355;-64
2021/07/08 15:25:53;;;;;;;;;;;;;;;;;;10253326;28;20466;-64
2021/07/08 15:30:51;;;;;;;;;;;;;;;;;;10241805;28;19968;-64
2021/07/08 15:35:49;;;;;;;;;;;;;;;;;;10221948;28;19954;-64
2021/07/08 15:40:46;;;;;;;;;;;;;;;;;;10244206;28;20315;-63
2021/07/08 15:45:44;;;;;;;;;;;;;;;;;;10234158;28;19943;-62
2021/07/08 15:50:41;;;;;;;;;;;;;;;;;;10224802;28;19968;-63
2021/07/08 15:55:38;;;;;;;;;;;;;;;;;;10248038;28;20024;-63
2021/07/08 16:00:35;;;;;;;;;;;;;;;;;;10235230;28;20265;-62
2021/07/08 16:05:33;;;;;;;;;;;;;;;;;;10248959;28;20268;-62
2021/07/08 16:10:31;;;;;;;;;;;;;;;;;;10230921;28;19918;-62
2021/07/08 16:15:28;;;;;;;;;;;;;;;;;;10246045;28;19932;-62
2021/07/08 16:20:25;;;;;;;;;;;;;;;;;;10248050;28;19913;-63
2021/07/08 16:25:23;;;;;;;;;;;;;;;;;;10251334;28;19963;-63
2021/07/08 16:30:22;;;;;;;;;;;;;;;;;;10249770;28;19924;-63
2021/07/08 16:35:19;;;;;;;;;;;;;;;;;;10250529;28;19960;-63
2021/07/08 16:40:16;;;;;;;;;;;;;;;;;;10253763;28;19914;-63
2021/07/08 16:45:14;;;;;;;;;;;;;;;;;;10260745;28;19913;-63
2021/07/08 16:50:11;;;;;;;;;;;;;;;;;;10252231;28;20004;-63
2021/07/08 16:55:08;;;;;;;;;;;;;;;;;;10252220;28;20028;-63
2021/07/08 17:00:05;;;;;;;;;;;;;;;;;;10252850;28;20385;-63
2021/07/08 17:05:03;;;;;;;;;;;;;;;;;;10255294;28;20024;-63
2021/07/08 17:10:00;;;;;;;;;;;;;;;;;;10254570;28;19913;-63
2021/07/08 17:14:57;;;;;;;;;;;;;;;;;;10258904;28;19917;-63
2021/07/08 17:19:55;;;;;;;;;;;;;;;;;;10238166;28;19913;-63
2021/07/08 17:24:52;;;;;;;;;;;;;;;;;;10248462;28;19921;-63
2021/07/08 17:29:49;;;;;;;;;;;;;;;;;;10239107;28;20019;-63
2021/07/08 17:34:46;;;;;;;;;;;;;;;;;;10239295;28;19928;-63
2021/07/08 17:39:44;;;;;;;;;;;;;;;;;;10241847;28;20530;-63
2021/07/08 17:44:41;;;;;;;;;;;;;;;;;;10245337;28;19936;-65
2021/07/08 17:49:40;;;;;;;;;;;;;;;;;;10247112;28;19924;-63
2021/07/08 17:54:38;;;;;;;;;;;;;;;;;;10255536;28;21839;-63
2021/07/08 17:59:36;;;;;;;;;;;;;;;;;;10239513;28;20430;-64
2021/07/08 18:04:33;;;;;;;;;;;;;;;;;;10250480;28;19984;-64
2021/07/08 18:09:30;;;;;;;;;;;;;;;;;;10248755;28;19917;-63
2021/07/08 18:14:28;;;;;;;;;;;;;;;;;;10250405;28;19990;-63
2021/07/08 18:19:25;;;;;;;;;;;;;;;;;;10241905;28;20469;-63
2021/07/08 18:24:23;;;;;;;;;;;;;;;;;;10246396;28;19918;-64
2021/07/08 18:29:20;;;;;;;;;;;;;;;;;;10242383;28;19979;-64
2021/07/08 18:34:17;;;;;;;;;;;;;;;;;;10239431;28;19917;-64
2021/07/08 18:39:14;;;;;;;;;;;;;;;;;;10251050;28;20363;-65
2021/07/08 18:44:12;;;;;;;;;;;;;;;;;;10242308;28;19913;-66
2021/07/08 18:49:09;;;;;;;;;;;;;;;;;;10239214;28;19932;-65
2021/07/08 18:54:06;;;;;;;;;;;;;;;;;;10241910;28;19914;-66
2021/07/08 18:59:04;;;;;;;;;;;;;;;;;;10242178;28;19921;-66
2021/07/08 19:04:03;;;;;;;;;;;;;;;;;;10248809;28;20346;-66
2021/07/08 19:09:00;;;;;;;;;;;;;;;;;;10238714;28;19918;-65
2021/07/08 19:13:57;;;;;;;;;;;;;;;;;;10253013;28;20383;-64
2021/07/08 19:18:55;;;;;;;;;;;;;;;;;;10251805;28;19925;-65
2021/07/08 19:23:57;;;;;;;;;;;;;;;;;;10251626;28;19921;-65
2021/07/08 19:28:54;;;;;;;;;;;;;;;;;;10226694;28;19964;-66
2021/07/08 19:33:55;;;;;;;;;;;;;;;;;;10242715;28;20013;-67
2021/07/08 19:38:53;;;;;;;;;;;;;;;;;;10215981;28;19929;-65
2021/07/08 19:43:50;;;;;;;;;;;;;;;;;;10244730;28;19985;-63
2021/07/08 19:48:47;;;;;;;;;;;;;;;;;;10247952;28;19913;-64
2021/07/08 19:53:45;;;;;;;;;;;;;;;;;;10218643;28;20675;-64
2021/07/08 19:58:42;;;;;;;;;;;;;;;;;;10243371;28;19921;-64
2021/07/08 20:03:39;;;;;;;;;;;;;;;;;;10239005;28;19920;-64
2021/07/08 20:08:37;;;;;;;;;;;;;;;;;;10249989;28;19913;-64
2021/07/08 20:13:34;;;;;;;;;;;;;;;;;;10235859;28;20430;-65
2021/07/08 20:18:31;;;;;;;;;;;;;;;;;;10247005;28;20335;-65
2021/07/08 20:23:29;;;;;;;;;;;;;;;;;;10243740;28;19925;-63
2021/07/08 20:28:26;;;;;;;;;;;;;;;;;;10242081;28;20075;-65
2021/07/08 20:33:23;;;;;;;;;;;;;;;;;;10234704;28;20386;-65
2021/07/08 20:38:21;;;;;;;;;;;;;;;;;;10227205;28;20004;-66
2021/07/08 20:43:18;;;;;;;;;;;;;;;;;;10236288;28;21286;-67
2021/07/08 20:48:15;;;;;;;;;;;;;;;;;;10222000;28;19914;-65
2021/07/08 20:53:12;;;;;;;;;;;;;;;;;;10247253;28;20012;-67
2021/07/08 20:58:10;;;;;;;;;;;;;;;;;;10242679;28;19924;-67
2021/07/08 21:03:07;;;;;;;;;;;;;;;;;;10251204;28;19920;-68
2021/07/08 21:08:04;;;;;;;;;;;;;;;;;;10248704;28;20310;-66
2021/07/08 21:13:01;;;;;;;;;;;;;;;;;;10231514;28;19929;-67
2021/07/08 21:17:59;;;;;;;;;;;;;;;;;;10257338;28;20371;-66
2021/07/08 21:22:57;;;;;;;;;;;;;;;;;;10236583;28;20000;-65
2021/07/08 21:27:54;;;;;;;;;;;;;;;;;;10249218;28;20265;-68
2021/07/08 21:32:51;;;;;;;;;;;;;;;;;;10246673;28;20008;-66
2021/07/08 21:37:49;;;;;;;;;;;;;;;;;;10247140;28;20270;-65
2021/07/08 21:42:46;;;;;;;;;;;;;;;;;;10233169;28;19914;-65
2021/07/08 21:47:45;;;;;;;;;;;;;;;;;;10252996;28;19913;-64
2021/07/08 21:52:42;;;;;;;;;;;;;;;;;;10229607;28;19948;-64
2021/07/08 21:57:39;;;;;;;;;;;;;;;;;;10248350;28;20019;-65
2021/07/08 22:02:37;;;;;;;;;;;;;;;;;;10251069;28;20340;-65
2021/07/08 22:07:34;;;;;;;;;;;;;;;;;;10251246;28;19906;-65
2021/07/08 22:12:31;;;;;;;;;;;;;;;;;;10247851;28;19910;-65
2021/07/08 22:17:29;;;;;;;;;;;;;;;;;;10250698;28;20789;-65
2021/07/08 22:22:26;;;;;;;;;;;;;;;;;;10248312;28;19940;-65
2021/07/08 22:27:23;;;;;;;;;;;;;;;;;;10263110;28;19912;-66
2021/07/08 22:32:20;;;;;;;;;;;;;;;;;;10262110;28;19919;-66
2021/07/08 22:37:19;;;;;;;;;;;;;;;;;;10255471;28;19941;-64
2021/07/08 22:42:16;;;;;;;;;;;;;;;;;;10257727;28;19925;-64
2021/07/08 22:47:13;;;;;;;;;;;;;;;;;;10258996;28;19917;-65
2021/07/08 22:52:10;;;;;;;;;;;;;;;;;;10251407;28;20303;-65
2021/07/08 22:57:08;;;;;;;;;;;;;;;;;;10256231;28;19924;-65
2021/07/08 23:02:05;;;;;;;;;;;;;;;;;;10255776;28;19928;-65
2021/07/08 23:07:02;;;;;;;;;;;;;;;;;;10256120;28;19920;-65
2021/07/08 23:12:00;;;;;;;;;;;;;;;;;;10242473;28;20539;-67
2021/07/08 23:16:57;;;;;;;;;;;;;;;;;;10257573;28;20020;-67
2021/07/08 23:21:54;;;;;;;;;;;;;;;;;;10258369;28;20182;-66
2021/07/08 23:26:52;;;;;;;;;;;;;;;;;;10258115;28;19917;-64
2021/07/08 23:31:49;;;;;;;;;;;;;;;;;;10255015;28;19922;-65
2021/07/08 23:36:46;;;;;;;;;;;;;;;;;;10254984;28;20241;-65
